SBOSBO ACE / GCRR
Speedbird OnlineSpeedbird Online ACE / GCRR

Lanzarote Airport
23:27 15°C

Location Arrecife, Spain
Latitude: 28.945499
Longitude: -13.6052
Web Airport Website | Wikipedia
Altitude 14 Meter / 46 Feet
Distance 2,755 KM / 1,712 Miles
from London.
Time Zone UTC 0 hours (Atlantic/Canary)
Codes IATA: ACE
ICAO: GCRR
Currency £1 equals EUR 1.13
Runways
RunwayLength (m)Surface
032400Asphalt
212400Asphalt
Radio
TypeDescriptionFrequency
APPCANARIAS APP129.3
ATISATIS118.625
GNDGND121.8
TWRTWR120.7
Live ATC
METAR GCRR 081430Z 05005KT 9999 FEW030 BKN040 17/13 Q1021
TAF TAF GCRR 081400Z 0815/0915 VRB05KT 9999 SCT035 TX19/0914Z TN13/0906Z
Weather As Of 08 Feb 2023 23:27
Description Clear sky
Wind 7 km/h from North (350°)
Cloud Cover 0%
Precipitation Rain: none, Snow: none
Sunrise 07:38
Sunset 18:38
Lounges Sala VIP Guacimeta , Terminal 1, 2nd floo
Rotations During the last 90 days there were
87 flights from LGW
86 flights to LGW



Support Speedbird Online

© 2017-2023 Speedbird Online